Time;durP1;ratioP1;P1;durP2;ratioP2;P2;SDS_P1;SDS_P2;PMS_P1;PMS_P2;Temp;Humidity;BMP_temperature;BMP_pressure;BME280_temperature;BME280_humidity;BME280_pressure;Samples;Min_cycle;Max_cycle;Signal;HPM_P1;HPM_P2
2023/03/12 00:00:28;;;;;;;9.93;5.47;;;-0.60;99.90;-1.60;98806;;;;567677;249;23993;-77
2023/03/12 00:02:56;;;;;;;10.53;5.67;;;-0.50;99.90;-1.50;98802;;;;556416;253;24015;-74
2023/03/12 00:05:27;;;;;;;5.87;5.27;;;-0.50;99.90;-1.50;98810;;;;563650;249;24082;-76
2023/03/12 00:07:58;;;;;;;9.83;5.97;;;-0.40;99.90;-1.50;98818;;;;565915;253;24004;-79
2023/03/12 00:10:23;;;;;;;8.53;5.10;;;-0.40;99.90;-1.40;98810;;;;556425;254;24067;-79
2023/03/12 00:12:54;;;;;;;8.57;5.70;;;-0.30;99.90;-1.40;98809;;;;566998;249;24014;-76
2023/03/12 00:15:20;;;;;;;8.53;5.40;;;-0.30;99.90;-1.40;98817;;;;565120;253;24035;-76
2023/03/12 00:17:48;;;;;;;11.23;5.17;;;-0.40;99.90;-1.40;98803;;;;567020;249;23986;-78
2023/03/12 00:20:19;;;;;;;6.17;5.00;;;-0.30;99.90;-1.50;98815;;;;566949;249;23994;-79
2023/03/12 00:22:44;;;;;;;8.00;5.10;;;-0.40;99.90;-1.50;98797;;;;564689;254;24053;-78
2023/03/12 00:25:15;;;;;;;6.90;5.33;;;-0.40;99.90;-1.60;98803;;;;567012;249;24007;-78
2023/03/12 00:27:39;;;;;;;9.20;5.87;;;-0.50;99.90;-1.60;98799;;;;568208;252;24031;-76
2023/03/12 00:30:11;;;;;;;9.40;6.03;;;-0.50;99.90;-1.60;98791;;;;560747;253;24075;-79
2023/03/12 00:32:39;;;;;;;8.17;5.17;;;-0.50;99.90;-1.60;98796;;;;552215;254;24071;-77
2023/03/12 00:35:04;;;;;;;6.77;4.70;;;-0.50;99.90;-1.60;98795;;;;564953;253;24023;-79
2023/03/12 00:37:33;;;;;;;6.20;5.03;;;-0.50;99.90;-1.60;98797;;;;564586;253;24016;-79
2023/03/12 00:40:01;;;;;;;5.27;4.27;;;-0.60;99.90;-1.60;98801;;;;575399;248;24014;-80
2023/03/12 00:42:29;;;;;;;6.23;4.97;;;-0.50;99.90;-1.50;98807;;;;556375;254;24013;-79
2023/03/12 00:44:57;;;;;;;11.77;4.70;;;-0.50;99.90;-1.50;98802;;;;566649;249;24069;-78
2023/03/12 00:47:24;;;;;;;6.37;4.93;;;-0.40;99.90;-1.40;98813;;;;556783;253;24106;-77
2023/03/12 00:49:52;;;;;;;7.20;4.80;;;-0.30;99.90;-1.30;98817;;;;560888;253;24125;-78
2023/03/12 00:52:20;;;;;;;5.73;4.27;;;-0.30;99.90;-1.20;98812;;;;567604;249;24063;-77
2023/03/12 00:54:48;;;;;;;5.53;3.87;;;-0.20;99.90;-1.20;98815;;;;567087;249;24021;-77
2023/03/12 00:57:17;;;;;;;3.37;3.07;;;0.00;99.90;-1.10;98817;;;;555906;253;24050;-76
2023/03/12 00:59:45;;;;;;;3.07;2.77;;;-0.10;99.90;-1.00;98842;;;;566897;249;23985;-75
2023/03/12 01:02:13;;;;;;;3.60;3.17;;;0.00;99.90;-1.00;98833;;;;556198;253;24013;-79
2023/03/12 01:04:41;;;;;;;3.37;3.07;;;0.10;99.90;-1.00;98828;;;;567965;249;24032;-79
2023/03/12 01:07:08;;;;;;;10.07;3.83;;;0.10;99.90;-0.90;98820;;;;563728;249;23996;-78
2023/03/12 01:09:36;;;;;;;3.77;3.07;;;0.10;99.90;-0.90;98822;;;;563548;249;24051;-75
2023/03/12 01:12:07;;;;;;;2.90;2.30;;;0.20;99.90;-0.90;98828;;;;567583;249;24046;-77
2023/03/12 01:14:32;;;;;;;2.10;1.97;;;0.20;99.90;-0.90;98831;;;;567383;249;24033;-78
2023/03/12 01:17:00;;;;;;;2.20;2.00;;;0.20;99.90;-0.90;98835;;;;563744;249;24069;-77
2023/03/12 01:19:28;;;;;;;2.53;2.03;;;0.20;99.90;-1.00;98832;;;;563710;249;24000;-77
2023/03/12 01:21:56;;;;;;;2.37;1.80;;;0.10;99.90;-0.90;98833;;;;563681;249;24020;-75
2023/03/12 01:24:24;;;;;;;2.60;2.40;;;0.10;99.90;-0.90;98832;;;;563454;249;24041;-78
2023/03/12 01:26:56;;;;;;;2.23;2.03;;;0.20;99.90;-0.90;98835;;;;563337;249;24074;-74
2023/03/12 01:29:20;;;;;;;2.03;1.93;;;0.20;99.90;-0.90;98829;;;;563018;249;24000;-76
2023/03/12 01:31:48;;;;;;;2.53;2.37;;;0.20;99.90;-0.90;98823;;;;563422;249;24111;-77
2023/03/12 01:34:16;;;;;;;2.97;2.30;;;0.20;99.90;-1.00;98826;;;;563477;249;24039;-74
2023/03/12 01:36:46;;;;;;;2.63;2.13;;;0.10;99.90;-1.00;98828;;;;563470;249;24016;-74
2023/03/12 01:39:12;;;;;;;2.37;2.27;;;0.10;99.90;-1.00;98830;;;;563102;249;24042;-74
2023/03/12 01:41:40;;;;;;;2.37;2.07;;;0.10;99.90;-0.90;98828;;;;563212;249;24010;-76
2023/03/12 01:44:08;;;;;;;3.30;2.40;;;0.20;99.90;-0.90;98812;;;;563213;249;23991;-74
2023/03/12 01:46:41;;;;;;;2.60;2.40;;;0.20;99.90;-0.90;98820;;;;556624;253;24129;-74
2023/03/12 01:49:27;;;;;;;3.20;2.33;;;0.20;99.90;-0.80;98819;;;;561230;246;24047;-74
2023/03/12 01:51:52;;;;;;;2.50;2.30;;;0.20;99.90;-0.80;98824;;;;566588;249;24047;-74
2023/03/12 01:54:20;;;;;;;3.40;2.17;;;0.20;99.90;-0.80;98836;;;;566414;249;24013;-74
2023/03/12 01:56:52;;;;;;;4.80;2.73;;;0.30;99.90;-0.80;98835;;;;566390;249;24027;-75
2023/03/12 01:59:25;;;;;;;2.40;1.73;;;0.30;99.90;-0.80;98839;;;;566397;249;24022;-74
2023/03/12 02:01:52;;;;;;;5.00;2.57;;;0.30;99.90;-0.80;98846;;;;566606;249;24040;-75
2023/03/12 02:04:20;;;;;;;1.10;1.10;;;0.30;99.90;-0.80;98825;;;;566760;249;23990;-75
2023/03/12 02:06:54;;;;;;;0.80;0.80;;;0.30;99.90;-0.80;98829;;;;567085;249;24036;-76
2023/03/12 02:09:22;;;;;;;0.67;0.67;;;0.20;99.90;-0.90;98838;;;;566126;249;24076;-75
2023/03/12 02:11:50;;;;;;;1.07;1.07;;;0.20;99.90;-0.90;98836;;;;562811;249;23986;-75
2023/03/12 02:14:19;;;;;;;0.97;0.97;;;0.10;99.90;-0.90;98830;;;;577826;246;24113;-75
2023/03/12 02:16:47;;;;;;;1.00;0.90;;;0.10;99.90;-1.00;98847;;;;568686;249;23984;-74
2023/03/12 02:19:33;;;;;;;1.30;1.13;;;0.10;99.90;-1.00;98838;;;;568138;249;24029;-74
2023/03/12 02:21:57;;;;;;;1.47;1.37;;;0.00;99.90;-1.10;98841;;;;567591;249;23993;-75
2023/03/12 02:24:28;;;;;;;1.47;1.37;;;-0.10;99.90;-1.20;98836;;;;567839;249;24017;-75
2023/03/12 02:26:56;;;;;;;1.27;1.10;;;-0.20;99.90;-1.30;98841;;;;576660;247;24047;-75
2023/03/12 02:29:27;;;;;;;1.50;0.90;;;-0.30;99.90;-1.40;98842;;;;576935;248;24043;-74
2023/03/12 02:31:52;;;;;;;1.30;1.20;;;-0.40;99.90;-1.50;98839;;;;563712;249;23991;-74
2023/03/12 02:34:19;;;;;;;2.60;1.07;;;-0.50;99.90;-1.50;98840;;;;568180;249;25154;-73
2023/03/12 02:36:51;;;;;;;0.97;0.93;;;-0.60;99.90;-1.60;98846;;;;568269;249;24033;-73
2023/03/12 02:39:15;;;;;;;2.30;1.50;;;-0.70;99.90;-1.70;98848;;;;568128;249;24011;-75
2023/03/12 02:41:46;;;;;;;2.20;1.33;;;-0.80;99.90;-1.70;98842;;;;577844;248;24032;-73
2023/03/12 02:44:20;;;;;;;1.30;0.80;;;-0.90;99.90;-1.80;98838;;;;564345;249;24079;-74
2023/03/12 02:46:52;;;;;;;0.93;0.90;;;-0.90;99.90;-1.80;98849;;;;568022;249;25179;-74
2023/03/12 02:49:20;;;;;;;2.87;1.40;;;-1.00;99.90;-1.90;98843;;;;567003;249;23994;-75
2023/03/12 02:51:51;;;;;;;0.70;0.70;;;-1.00;99.90;-1.90;98861;;;;566919;249;24077;-77
2023/03/12 02:54:19;;;;;;;2.17;1.00;;;-1.00;99.90;-2.00;98858;;;;563705;249;24071;-75
2023/03/12 02:56:43;;;;;;;1.20;0.77;;;-1.10;99.90;-2.00;98863;;;;566520;249;24139;-75
2023/03/12 02:59:12;;;;;;;0.70;0.70;;;-1.10;99.90;-2.00;98868;;;;566732;249;24086;-73
2023/03/12 03:01:39;;;;;;;1.70;0.90;;;-1.10;99.90;-2.00;98862;;;;566730;249;24007;-76
2023/03/12 03:04:07;;;;;;;0.87;0.83;;;-1.00;99.90;-1.90;98862;;;;566954;249;24010;-77
2023/03/12 03:06:35;;;;;;;2.47;0.83;;;-1.00;99.90;-2.00;98868;;;;557027;253;24040;-77
2023/03/12 03:09:04;;;;;;;1.07;0.90;;;-1.10;99.90;-2.00;98867;;;;566783;249;24015;-75
2023/03/12 03:11:32;;;;;;;1.00;0.83;;;-1.10;99.90;-2.00;98867;;;;555680;253;24054;-77
2023/03/12 03:14:02;;;;;;;2.23;0.90;;;-1.10;99.90;-2.10;98871;;;;566695;249;24029;-77
2023/03/12 03:16:28;;;;;;;1.45;1.08;;;-3.50;99.90;-2.10;98877;;;;552314;253;34540;-80
2023/03/12 03:18:55;;;;;;;1.47;0.53;;;-1.20;99.90;-2.20;98873;;;;567154;249;24105;-79
2023/03/12 03:21:26;;;;;;;4.47;1.17;;;-1.20;99.90;-2.20;98874;;;;555962;253;24057;-79
2023/03/12 03:23:52;;;;;;;2.20;0.90;;;-1.30;99.90;-2.20;98880;;;;566910;249;25137;-78
2023/03/12 03:26:20;;;;;;;4.37;1.20;;;-1.30;99.90;-2.20;98891;;;;557058;253;24119;-79
2023/03/12 03:28:48;;;;;;;1.80;0.97;;;-1.30;99.90;-2.20;98882;;;;563663;249;23989;-78
2023/03/12 03:31:16;;;;;;;1.23;0.73;;;-1.30;99.90;-2.20;98892;;;;556751;253;24021;-77
2023/03/12 03:33:44;;;;;;;0.80;0.60;;;-1.40;99.90;-2.30;98885;;;;567881;249;23995;-78
2023/03/12 03:36:17;;;;;;;2.10;0.83;;;-1.40;99.90;-2.30;98898;;;;569567;251;24034;-77
2023/03/12 03:38:40;;;;;;;2.10;1.37;;;-1.40;99.90;-2.40;98903;;;;570765;249;24008;-78
2023/03/12 03:41:08;;;;;;;1.97;0.97;;;-1.40;99.90;-2.40;98901;;;;553328;254;24046;-77
2023/03/12 03:43:36;;;;;;;1.50;1.03;;;-1.50;99.90;-2.50;98909;;;;567558;249;23988;-77
2023/03/12 03:46:04;;;;;;;0.70;0.43;;;-1.50;99.90;-2.50;98908;;;;556204;253;24062;-78
2023/03/12 03:48:33;;;;;;;4.17;1.17;;;-1.60;99.90;-2.50;98900;;;;552462;254;24038;-77
2023/03/12 03:51:01;;;;;;;2.20;1.40;;;-1.60;99.90;-2.60;98904;;;;562166;249;34290;-75
2023/03/12 03:53:28;;;;;;;0.90;0.90;;;-1.60;99.90;-2.60;98911;;;;556544;254;24074;-75
2023/03/12 03:55:56;;;;;;;2.20;0.80;;;-1.70;99.90;-2.60;98909;;;;567061;249;24026;-78
2023/03/12 03:58:27;;;;;;;3.57;0.93;;;-1.70;99.90;-2.70;98908;;;;567015;249;24038;-77
2023/03/12 04:00:52;;;;;;;1.33;0.70;;;-1.80;99.90;-2.70;98916;;;;557018;253;24037;-77
2023/03/12 04:03:20;;;;;;;2.63;1.03;;;-1.80;99.90;-2.80;98913;;;;562276;249;23983;-79
2023/03/12 04:05:48;;;;;;;2.20;0.70;;;-1.90;99.90;-2.80;98918;;;;555638;253;24091;-77
2023/03/12 04:08:16;;;;;;;2.43;0.80;;;-1.90;99.90;-2.90;98928;;;;562178;249;24013;-77
2023/03/12 04:10:44;;;;;;;0.87;0.77;;;-1.90;99.90;-2.90;98917;;;;555596;253;24034;-75
2023/03/12 04:13:12;;;;;;;1.90;0.80;;;-2.00;99.90;-3.00;98940;;;;566661;249;24012;-75
2023/03/12 04:15:40;;;;;;;1.13;0.70;;;-2.00;99.90;-2.90;98954;;;;555699;253;24019;-73
2023/03/12 04:18:08;;;;;;;0.87;0.80;;;-2.00;99.90;-2.80;98955;;;;566672;249;24010;-77
2023/03/12 04:20:36;;;;;;;1.80;0.83;;;-1.90;99.90;-2.70;98943;;;;555889;253;24072;-77
2023/03/12 04:23:04;;;;;;;1.13;0.73;;;-1.70;99.90;-2.60;98936;;;;567031;249;24022;-76
2023/03/12 04:25:32;;;;;;;1.97;0.90;;;-1.60;99.90;-2.60;98939;;;;566403;251;24034;-76
2023/03/12 04:28:00;;;;;;;1.93;0.60;;;-1.60;99.90;-2.70;98948;;;;566997;249;24083;-75
2023/03/12 04:30:28;;;;;;;1.37;0.87;;;-1.70;99.90;-2.70;98962;;;;565306;253;24133;-76
2023/03/12 04:32:56;;;;;;;0.70;0.60;;;-1.70;99.90;-2.60;98949;;;;564927;253;24054;-76
2023/03/12 04:35:24;;;;;;;1.27;1.07;;;-1.60;99.90;-2.60;98948;;;;567124;249;24031;-77
2023/03/12 04:37:52;;;;;;;1.00;1.00;;;-1.50;99.90;-2.50;98963;;;;557102;253;24016;-77
2023/03/12 04:40:21;;;;;;;3.90;1.10;;;-1.50;99.90;-2.60;98963;;;;568209;249;24030;-74
2023/03/12 04:42:49;;;;;;;1.47;0.87;;;-1.50;99.90;-2.50;98947;;;;557869;253;24046;-76
2023/03/12 04:45:17;;;;;;;0.80;0.80;;;-1.50;99.90;-2.50;98939;;;;557363;253;24016;-76
2023/03/12 04:47:45;;;;;;;0.60;0.60;;;-1.50;99.90;-2.60;98936;;;;567613;249;23992;-78
2023/03/12 04:50:13;;;;;;;2.47;0.87;;;-1.60;99.90;-2.70;98940;;;;556407;253;24027;-75
2023/03/12 04:52:41;;;;;;;0.70;0.70;;;-1.70;99.90;-2.80;98934;;;;553044;254;24070;-74
2023/03/12 04:55:08;;;;;;;3.13;0.90;;;-1.80;99.90;-2.90;98939;;;;567048;249;24052;-75
2023/03/12 04:57:36;;;;;;;3.78;1.17;;;-1.90;99.90;-3.00;98933;;;;570517;248;34313;-77
2023/03/12 05:00:09;;;;;;;2.10;0.73;;;-2.00;99.90;-3.10;98932;;;;555819;253;24013;-76
2023/03/12 05:02:32;;;;;;;1.23;0.63;;;-2.10;99.90;-3.10;98938;;;;566842;249;25067;-74
2023/03/12 05:05:00;;;;;;;4.20;1.17;;;-2.10;99.90;-3.20;98939;;;;555748;253;24068;-76
2023/03/12 05:07:28;;;;;;;3.37;1.00;;;-2.10;99.90;-3.20;98926;;;;567011;249;24010;-74
2023/03/12 05:09:56;;;;;;;0.50;0.50;;;-2.20;99.90;-3.20;98933;;;;555808;253;24039;-73
2023/03/12 05:12:25;;;;;;;0.80;0.80;;;-2.20;99.90;-3.20;98944;;;;564436;249;24023;-73
2023/03/12 05:14:52;;;;;;;2.00;0.60;;;-2.20;99.90;-3.20;98954;;;;555591;253;24062;-75
2023/03/12 05:17:20;;;;;;;1.60;0.63;;;-2.20;99.90;-3.10;98958;;;;566706;249;24069;-74
2023/03/12 05:19:48;;;;;;;0.60;0.60;;;-2.10;99.90;-3.10;98952;;;;557191;253;24062;-74
2023/03/12 05:22:17;;;;;;;1.53;0.90;;;-2.10;99.90;-3.10;98968;;;;567076;249;24043;-73
2023/03/12 05:24:46;;;;;;;3.20;0.77;;;-2.10;99.90;-3.10;98961;;;;557151;253;24087;-71
2023/03/12 05:27:14;;;;;;;2.27;0.83;;;-2.10;99.90;-3.20;98965;;;;567013;249;24119;-73
2023/03/12 05:29:44;;;;;;;0.67;0.57;;;-2.10;99.90;-3.20;98970;;;;555886;253;24034;-73
2023/03/12 05:32:09;;;;;;;1.40;1.10;;;-2.10;99.90;-3.20;98973;;;;557069;253;24060;-73
2023/03/12 05:34:38;;;;;;;3.63;1.10;;;-2.10;99.90;-3.20;98969;;;;561108;253;24042;-72
2023/03/12 05:37:06;;;;;;;1.40;0.73;;;-2.10;99.90;-3.20;98974;;;;567030;249;24060;-74
2023/03/12 05:39:34;;;;;;;1.13;0.90;;;-2.10;99.90;-3.20;98981;;;;555894;253;24028;-74
2023/03/12 05:42:05;;;;;;;0.63;0.60;;;-2.10;99.90;-3.20;98979;;;;567028;249;24044;-74
2023/03/12 05:44:30;;;;;;;1.80;0.90;;;-2.10;99.90;-3.20;98986;;;;566886;249;24020;-74
2023/03/12 05:46:59;;;;;;;3.33;1.17;;;-2.10;99.90;-3.10;98994;;;;553319;253;24023;-73
2023/03/12 05:49:27;;;;;;;3.43;0.83;;;-2.10;99.90;-3.10;98994;;;;568201;248;24012;-75
2023/03/12 05:51:55;;;;;;;0.53;0.53;;;-2.10;99.90;-3.10;99002;;;;556985;253;24022;-74
2023/03/12 05:54:23;;;;;;;3.60;0.97;;;-2.00;99.90;-3.00;99002;;;;567456;249;24020;-74
2023/03/12 05:56:51;;;;;;;1.40;0.80;;;-1.90;99.90;-2.90;98998;;;;556419;253;24018;-74
2023/03/12 05:59:19;;;;;;;1.80;0.90;;;-1.80;99.90;-2.90;99010;;;;560973;253;24113;-74
2023/03/12 06:01:47;;;;;;;2.20;0.73;;;-1.80;99.90;-2.80;99026;;;;567850;249;24106;-75
2023/03/12 06:04:14;;;;;;;1.17;0.63;;;-1.70;99.90;-2.70;99028;;;;567189;249;24025;-73
2023/03/12 06:06:42;;;;;;;0.83;0.50;;;-1.70;99.90;-2.30;99024;;;;556341;253;24003;-76
2023/03/12 06:09:11;;;;;;;1.63;0.73;;;-0.70;99.90;-1.80;99030;;;;566968;249;24047;-78
2023/03/12 06:11:39;;;;;;;0.83;0.60;;;-0.70;99.90;-1.30;99048;;;;555779;253;24014;-78
2023/03/12 06:14:07;;;;;;;0.73;0.50;;;-0.30;99.90;-1.00;99063;;;;566981;249;24008;-77
2023/03/12 06:16:35;;;;;;;3.00;0.90;;;0.10;99.90;-0.90;99051;;;;555811;253;24019;-75
2023/03/12 06:19:03;;;;;;;0.83;0.60;;;0.30;99.90;-1.00;99058;;;;567033;249;24064;-79
2023/03/12 06:21:31;;;;;;;0.73;0.43;;;0.20;99.90;-0.90;99057;;;;563433;249;24010;-77
2023/03/12 06:23:59;;;;;;;3.73;0.63;;;0.30;99.90;-0.80;99044;;;;567299;249;24124;-77
2023/03/12 06:26:27;;;;;;;0.57;0.57;;;0.30;99.90;0.00;99062;;;;575491;248;25201;-76
2023/03/12 06:28:59;;;;;;;0.50;0.50;;;0.90;99.90;1.30;99076;;;;593138;238;24088;-76
2023/03/12 06:31:23;;;;;;;0.10;0.10;;;2.10;99.90;2.70;99085;;;;590507;238;25081;-75
2023/03/12 06:33:52;;;;;;;0.00;0.00;;;3.40;99.90;3.80;99085;;;;592277;238;24035;-76
2023/03/12 06:36:21;;;;;;;1.50;0.47;;;5.40;99.90;4.50;99115;;;;592132;238;24065;-76
2023/03/12 06:38:50;;;;;;;2.17;0.97;;;5.40;99.90;4.20;99102;;;;599341;238;24043;-75
2023/03/12 06:41:19;;;;;;;0.23;0.20;;;5.60;99.90;3.10;99098;;;;592057;238;24050;-74
2023/03/12 06:43:43;;;;;;;0.47;0.30;;;5.00;99.90;2.40;99098;;;;591572;238;24130;-75
2023/03/12 06:46:14;;;;;;;0.20;0.20;;;4.20;99.90;1.70;99101;;;;592038;238;24064;-75
2023/03/12 06:48:45;;;;;;;0.73;0.27;;;3.60;99.90;1.30;99121;;;;592093;238;24087;-75
2023/03/12 06:51:10;;;;;;;0.30;0.30;;;3.00;99.90;0.90;99124;;;;591951;238;24230;-74
2023/03/12 06:53:38;;;;;;;0.97;0.63;;;2.60;99.90;0.50;99149;;;;592065;238;24097;-77
2023/03/12 06:56:09;;;;;;;0.73;0.73;;;2.10;99.90;0.20;99151;;;;594985;238;24036;-75
2023/03/12 06:58:34;;;;;;;0.43;0.40;;;1.70;99.90;-0.10;99152;;;;601186;238;24042;-75
2023/03/12 07:01:02;;;;;;;0.97;0.97;;;1.30;99.90;-0.30;99143;;;;593359;238;24038;-75
2023/03/12 07:03:30;;;;;;;0.17;0.17;;;1.10;99.90;-0.40;99153;;;;593376;238;24061;-75
2023/03/12 07:05:57;;;;;;;0.70;0.70;;;0.90;99.90;-0.30;99141;;;;592966;238;24037;-75
2023/03/12 07:08:28;;;;;;;0.43;0.43;;;0.80;99.90;0.00;99155;;;;602707;238;24100;-76
2023/03/12 07:10:53;;;;;;;0.20;0.20;;;1.00;99.90;0.10;99139;;;;592411;238;24084;-75
2023/03/12 07:13:21;;;;;;;0.37;0.37;;;1.20;99.90;0.00;99126;;;;592708;238;24042;-74
2023/03/12 07:15:49;;;;;;;0.10;0.10;;;1.10;99.90;-0.10;99133;;;;592836;238;24087;-74
2023/03/12 07:18:17;;;;;;;0.10;0.10;;;1.00;99.90;0.50;99130;;;;592573;238;24019;-74
2023/03/12 07:20:46;;;;;;;0.30;0.30;;;1.40;99.90;1.80;99149;;;;601950;238;24133;-74
2023/03/12 07:23:16;;;;;;;1.80;0.53;;;2.40;99.90;3.90;99169;;;;592336;238;24076;-72
2023/03/12 07:25:41;;;;;;;0.20;0.20;;;4.30;99.90;5.40;99166;;;;587621;238;24075;-74
2023/03/12 07:28:12;;;;;;;3.70;1.30;;;5.90;99.90;6.90;99180;;;;592355;238;24075;-75
2023/03/12 07:30:37;;;;;;;1.87;1.20;;;7.50;99.90;8.50;99187;;;;591996;238;24097;-74
2023/03/12 07:33:07;;;;;;;5.23;1.20;;;9.30;99.90;9.00;99180;;;;592543;238;24066;-75
2023/03/12 07:35:37;;;;;;;1.43;0.90;;;9.80;99.90;7.40;99180;;;;601731;238;24114;-73
2023/03/12 07:38:04;;;;;;;1.20;1.10;;;9.80;99.90;7.10;99171;;;;592211;238;24049;-72
2023/03/12 07:40:32;;;;;;;4.73;1.40;;;9.00;99.90;7.50;99184;;;;590865;238;24097;-72
2023/03/12 07:43:03;;;;;;;3.47;1.10;;;9.10;99.90;7.50;99181;;;;592294;238;24113;-74
2023/03/12 07:45:28;;;;;;;4.73;1.43;;;9.20;99.90;6.30;99186;;;;592002;238;24094;-73
2023/03/12 07:47:56;;;;;;;3.03;1.57;;;8.60;99.90;5.20;99173;;;;592211;238;24054;-73
2023/03/12 07:50:23;;;;;;;6.90;1.57;;;7.60;99.90;4.20;99179;;;;592278;238;24124;-72
2023/03/12 07:52:51;;;;;;;2.43;1.23;;;6.60;99.90;3.40;99193;;;;592219;238;24068;-72
2023/03/12 07:55:19;;;;;;;4.33;1.57;;;5.70;99.90;3.90;99186;;;;592049;238;24072;-73
2023/03/12 07:57:47;;;;;;;4.93;1.27;;;5.60;99.90;4.10;99179;;;;592435;238;24040;-73
2023/03/12 08:00:15;;;;;;;2.90;1.83;;;5.70;99.90;3.80;99194;;;;592143;238;24069;-74
2023/03/12 08:02:43;;;;;;;8.80;2.10;;;5.50;99.90;3.10;99195;;;;601547;238;24030;-75
2023/03/12 08:05:11;;;;;;;5.17;1.87;;;5.00;99.90;2.80;99206;;;;601536;238;24036;-76
2023/03/12 08:07:40;;;;;;;3.00;1.87;;;4.30;99.90;2.50;99218;;;;592326;238;24061;-74
2023/03/12 08:10:08;;;;;;;1.30;1.10;;;4.30;99.90;2.40;99206;;;;592202;238;25072;-75
2023/03/12 08:12:39;;;;;;;1.93;1.30;;;4.10;99.90;2.20;99219;;;;593227;238;24041;-73
2023/03/12 08:15:07;;;;;;;0.83;0.80;;;3.90;99.90;2.40;99198;;;;593044;238;24038;-75
2023/03/12 08:17:32;;;;;;;0.63;0.63;;;3.90;99.90;2.40;99201;;;;592637;238;24038;-76
2023/03/12 08:20:00;;;;;;;2.03;1.37;;;3.90;99.90;3.40;99219;;;;593083;238;24027;-75
2023/03/12 08:22:28;;;;;;;2.03;0.97;;;4.50;99.90;4.30;99221;;;;592787;238;24041;-74
2023/03/12 08:24:59;;;;;;;7.67;1.43;;;5.50;99.90;4.30;99234;;;;592674;238;24049;-74
2023/03/12 08:27:24;;;;;;;1.70;0.77;;;5.70;99.90;3.30;99262;;;;587735;238;24051;-74
2023/03/12 08:29:52;;;;;;;2.93;1.30;;;5.30;99.90;2.10;99263;;;;592598;238;24020;-75
2023/03/12 08:32:20;;;;;;;1.63;1.03;;;3.10;99.90;1.10;99258;;;;592543;238;24026;-74
2023/03/12 08:34:51;;;;;;;5.50;1.40;;;3.10;99.90;0.60;99251;;;;592486;238;24070;-75
2023/03/12 08:37:16;;;;;;;3.70;1.90;;;2.40;99.90;0.40;99239;;;;592152;238;24039;-75
2023/03/12 08:39:44;;;;;;;7.37;2.53;;;1.90;99.90;0.20;99249;;;;592464;238;24016;-73
2023/03/12 08:42:13;;;;;;;3.07;1.20;;;1.30;99.90;0.10;99256;;;;592368;238;24084;-74
2023/03/12 08:44:40;;;;;;;6.37;2.50;;;1.30;99.90;0.10;99243;;;;592492;238;24036;-75
2023/03/12 08:47:08;;;;;;;7.73;2.43;;;1.20;99.90;0.80;99256;;;;592307;238;24059;-73
2023/03/12 08:49:36;;;;;;;8.73;2.27;;;1.50;99.90;2.70;99269;;;;592286;238;24042;-74
2023/03/12 08:52:05;;;;;;;12.57;2.47;;;5.10;99.90;4.50;99285;;;;592210;238;24143;-75
2023/03/12 08:54:33;;;;;;;5.37;1.40;;;5.10;99.90;5.10;99290;;;;592326;238;24044;-74
2023/03/12 08:57:04;;;;;;;10.93;3.70;;;6.30;99.90;4.60;99305;;;;592196;238;24092;-73
2023/03/12 08:59:31;;;;;;;12.93;3.97;;;6.20;99.90;3.90;99308;;;;591704;238;24086;-73
2023/03/12 09:02:00;;;;;;;3.63;2.20;;;5.70;99.90;3.70;99311;;;;592230;238;24038;-73
2023/03/12 09:04:27;;;;;;;11.07;3.30;;;5.40;99.90;3.50;99309;;;;592157;238;24117;-80
2023/03/12 09:06:55;;;;;;;5.40;2.20;;;5.20;99.90;3.60;99321;;;;591785;238;24086;-73
2023/03/12 09:09:27;;;;;;;4.93;1.33;;;5.20;99.90;3.70;99324;;;;592182;238;24071;-75
2023/03/12 09:11:51;;;;;;;1.37;0.60;;;5.20;99.90;3.90;99318;;;;591640;238;24069;-80
2023/03/12 09:14:19;;;;;;;2.57;1.27;;;5.40;99.90;5.40;99319;;;;592252;238;24094;-77
2023/03/12 09:16:50;;;;;;;6.40;1.60;;;6.40;99.90;7.60;99332;;;;592155;238;24046;-77
2023/03/12 09:19:15;;;;;;;9.97;2.50;;;8.40;99.90;9.70;99333;;;;591933;238;25075;-76
2023/03/12 09:21:43;;;;;;;4.83;1.20;;;10.60;99.90;11.80;99339;;;;592247;238;24189;-77
2023/03/12 09:24:10;;;;;;;13.83;3.93;;;12.80;99.90;13.20;99358;;;;603301;236;24070;-75
2023/03/12 09:26:38;;;;;;;19.60;4.57;;;14.60;99.90;14.30;99372;;;;593267;238;24062;-74
2023/03/12 09:29:06;;;;;;;6.00;2.43;;;15.90;99.90;14.60;99383;;;;592977;238;24024;-79
2023/03/12 09:31:35;;;;;;;3.80;1.93;;;16.50;99.90;13.80;99370;;;;593099;238;24032;-74
2023/03/12 09:34:18;;;;;;;3.57;1.90;;;16.20;99.90;13.70;99379;;;;592759;238;24059;-77
2023/03/12 09:36:49;;;;;;;4.87;2.13;;;15.90;99.90;13.60;99366;;;;593502;238;24075;-74
2023/03/12 09:39:17;;;;;;;9.80;3.40;;;15.80;99.90;12.80;99380;;;;592771;238;24014;-76
2023/03/12 09:41:46;;;;;;;5.30;1.87;;;15.10;99.90;11.40;99376;;;;596150;238;24053;-76
2023/03/12 09:44:21;;;;;;;7.53;2.50;;;13.90;99.90;10.40;99383;;;;576490;245;24126;-76
2023/03/12 09:46:53;;;;;;;9.87;2.47;;;11.70;99.90;9.50;99377;;;;589206;243;24098;-82
2023/03/12 09:49:39;;;;;;;7.50;3.00;;;11.00;99.90;9.00;99396;;;;579378;243;24068;-75
2023/03/12 09:52:07;;;;;;;15.53;4.43;;;11.00;99.90;8.90;99397;;;;595869;238;24072;-80
2023/03/12 09:54:44;;;;;;;12.23;2.53;;;10.70;99.90;9.30;99408;;;;590913;238;24105;-80
2023/03/12 09:57:12;;;;;;;9.30;3.07;;;11.00;99.90;10.30;99413;;;;587697;238;24037;-82
2023/03/12 09:59:39;;;;;;;9.27;2.97;;;11.90;99.90;10.30;99414;;;;587798;244;24131;-83
2023/03/12 10:02:25;;;;;;;7.47;1.73;;;12.10;99.90;9.40;99412;;;;588334;241;24070;-84
2023/03/12 10:05:06;;;;;;;2.57;1.37;;;10.60;99.90;8.40;99414;;;;587197;238;24074;-81
2023/03/12 10:07:38;;;;;;;9.67;3.57;;;9.70;99.90;7.70;99412;;;;578999;243;24086;-79
2023/03/12 10:10:36;;;;;;;7.10;2.80;;;9.70;99.90;8.50;99421;;;;585065;241;24082;-75
2023/03/12 10:13:25;;;;;;;7.27;3.00;;;10.80;99.90;9.50;99424;;;;579289;243;24091;-74
2023/03/12 10:16:11;;;;;;;7.63;3.67;;;10.80;99.90;10.70;99438;;;;589288;243;24143;-74
2023/03/12 10:18:54;;;;;;;7.23;2.53;;;11.90;99.90;11.20;99428;;;;584890;241;24034;-76
2023/03/12 10:21:25;;;;;;;9.10;3.80;;;12.50;99.90;11.70;99451;;;;582171;243;24052;-73
2023/03/12 10:24:14;;;;;;;12.10;4.63;;;13.20;99.90;12.10;99452;;;;592155;238;24052;-74
2023/03/12 10:26:51;;;;;;;5.03;2.73;;;13.60;99.90;12.40;99455;;;;579791;243;24115;-75
2023/03/12 10:29:22;;;;;;;5.37;2.43;;;14.00;99.90;12.20;99449;;;;580773;243;24133;-75
2023/03/12 10:32:02;;;;;;;4.77;2.03;;;13.90;99.90;12.40;99456;;;;592350;239;24032;-74
2023/03/12 10:34:51;;;;;;;7.17;3.67;;;14.10;99.90;12.50;99466;;;;591700;237;24037;-74
2023/03/12 10:37:21;;;;;;;5.47;2.20;;;14.10;99.90;12.10;99458;;;;578129;242;24158;-74
2023/03/12 10:39:54;;;;;;;5.97;2.60;;;13.90;99.90;12.30;99462;;;;593139;238;24059;-75
2023/03/12 10:42:18;;;;;;;4.47;2.00;;;13.90;99.90;11.90;99468;;;;586973;244;24103;-75
2023/03/12 10:44:49;;;;;;;10.40;3.07;;;13.70;99.90;11.60;99468;;;;579655;243;24080;-74
2023/03/12 10:47:35;;;;;;;5.73;2.60;;;13.40;99.90;11.00;99476;;;;577126;243;24091;-75
2023/03/12 10:50:14;;;;;;;8.13;2.40;;;12.90;99.90;10.00;99463;;;;602451;238;24016;-74
2023/03/12 10:52:42;;;;;;;4.17;1.77;;;11.90;99.90;9.10;99463;;;;588065;238;24049;-73
2023/03/12 10:55:19;;;;;;;4.40;1.93;;;10.90;99.90;8.30;99460;;;;592472;238;25060;-74
2023/03/12 10:57:47;;;;;;;14.53;3.83;;;9.90;99.90;7.30;99463;;;;591915;238;24135;-74
2023/03/12 11:00:24;;;;;;;7.20;2.47;;;8.90;99.90;6.70;99456;;;;592564;238;24115;-73
2023/03/12 11:02:58;;;;;;;10.47;3.17;;;8.10;99.90;5.80;99462;;;;591937;238;24063;-74
2023/03/12 11:05:29;;;;;;;13.10;3.73;;;7.30;99.90;5.00;99457;;;;591988;238;24043;-73
2023/03/12 11:07:59;;;;;;;3.00;1.30;;;6.50;99.90;4.50;99465;;;;592705;238;24046;-74
2023/03/12 11:10:42;;;;;;;13.50;1.87;;;5.80;99.90;4.00;99468;;;;591688;238;24041;-75
2023/03/12 11:13:32;;;;;;;2.13;1.27;;;5.30;99.90;3.50;99468;;;;592481;238;24042;-74
2023/03/12 11:16:14;;;;;;;6.60;1.87;;;4.70;99.90;3.10;99469;;;;592610;238;24049;-74
2023/03/12 11:18:55;;;;;;;4.97;1.97;;;4.30;99.90;2.80;99468;;;;592540;238;24075;-74
2023/03/12 11:21:25;;;;;;;7.40;2.10;;;3.90;99.90;2.60;99458;;;;592255;238;24043;-74
2023/03/12 11:23:57;;;;;;;1.73;1.00;;;3.60;99.90;2.60;99478;;;;596544;238;34979;-75
2023/03/12 11:26:25;;;;;;;3.50;1.55;;;3.60;99.90;2.50;99468;;;;591087;238;34855;-74
2023/03/12 11:28:55;;;;;;;3.47;1.37;;;3.60;99.90;2.60;99467;;;;587322;238;34879;-74
2023/03/12 11:31:26;;;;;;;12.60;3.80;;;3.60;99.90;2.60;99467;;;;592275;238;24053;-75